createdAt,value
2022-10-22T04:31:07.540Z,6.20
2022-10-22T04:32:14.506Z,6.30
2022-10-22T04:33:14.502Z,6.70
2022-10-22T04:34:07.431Z,7.00
2022-10-22T04:35:07.400Z,6.90
2022-10-22T04:36:07.490Z,7.00
2022-10-22T04:37:07.384Z,6.40
2022-10-22T04:38:07.349Z,6.10
2022-10-22T04:39:07.350Z,6.30
2022-10-22T04:40:07.329Z,6.30
2022-10-22T04:41:07.319Z,7.70
2022-10-22T04:42:07.316Z,6.90
2022-10-22T04:43:07.289Z,6.40
2022-10-22T04:44:10.938Z,6.00
2022-10-22T04:45:08.270Z,6.50
2022-10-22T04:46:07.250Z,6.70
2022-10-22T04:47:07.329Z,6.70
2022-10-22T04:48:14.345Z,6.70
2022-10-22T04:49:07.225Z,6.60
2022-10-22T04:50:07.380Z,6.00
2022-10-22T04:51:07.189Z,6.40
2022-10-22T04:52:07.213Z,6.20
2022-10-22T04:53:07.228Z,6.20
2022-10-22T04:54:07.138Z,6.40
2022-10-22T04:55:07.129Z,6.20
2022-10-22T04:56:07.129Z,6.30
2022-10-22T04:57:07.108Z,5.80
2022-10-22T04:58:07.099Z,5.90
2022-10-22T04:59:07.122Z,6.30
2022-10-22T05:00:07.067Z,5.90
2022-10-22T05:01:07.082Z,5.60
2022-10-22T05:02:07.069Z,6.20
2022-10-22T05:03:07.076Z,6.10
2022-10-22T05:04:07.011Z,6.90
2022-10-22T05:05:06.997Z,6.80
2022-10-22T05:06:07.025Z,6.10
2022-10-22T05:07:06.978Z,5.90
2022-10-22T05:08:06.967Z,5.90
2022-10-22T05:09:07.003Z,5.60
2022-10-22T05:10:06.936Z,6.10
2022-10-22T05:11:06.918Z,5.90
2022-10-22T05:12:06.936Z,6.50
2022-10-22T05:13:06.905Z,6.50
2022-10-22T05:14:06.875Z,6.50
2022-10-22T05:15:06.866Z,6.50
2022-10-22T05:16:06.847Z,7.50
2022-10-22T05:17:06.849Z,6.90
2022-10-22T05:18:06.834Z,7.40
2022-10-22T05:19:06.814Z,7.20
2022-10-22T05:20:06.810Z,7.70
2022-10-22T05:21:06.785Z,7.50
2022-10-22T05:22:06.785Z,7.40
2022-10-22T05:23:06.777Z,7.50
2022-10-22T05:24:06.738Z,6.90
2022-10-22T05:25:06.741Z,7.40
2022-10-22T05:26:06.726Z,6.60
2022-10-22T05:27:06.762Z,7.20
2022-10-22T05:28:06.704Z,6.50
2022-10-22T05:29:06.674Z,6.60
2022-10-22T05:30:06.663Z,6.70
2022-10-22T05:31:06.658Z,6.40
2022-10-22T05:32:06.656Z,6.60
2022-10-22T05:33:06.652Z,6.40
2022-10-22T05:34:06.603Z,6.60
2022-10-22T05:35:06.593Z,6.90
2022-10-22T05:36:06.582Z,7.00
2022-10-22T05:37:06.574Z,7.30
2022-10-22T05:38:06.562Z,7.30
2022-10-22T05:39:06.543Z,7.00
2022-10-22T05:40:19.266Z,6.70
2022-10-22T05:41:07.514Z,6.50
2022-10-22T05:42:06.524Z,7.10
2022-10-22T05:43:06.511Z,7.10
2022-10-22T05:44:06.483Z,6.80
2022-10-22T05:45:06.462Z,6.60
2022-10-22T05:46:06.441Z,7.40
2022-10-22T05:47:06.481Z,7.60
2022-10-22T05:48:06.421Z,8.40
2022-10-22T05:49:06.414Z,7.70
2022-10-22T05:50:06.391Z,7.80
2022-10-22T05:51:06.381Z,8.90
2022-10-22T05:52:06.372Z,9.10
2022-10-22T05:53:06.370Z,13.30
2022-10-22T05:54:06.344Z,13.80
2022-10-22T05:55:06.331Z,13.20
2022-10-22T05:56:06.312Z,10.90
2022-10-22T05:57:06.319Z,8.70
2022-10-22T05:58:06.284Z,7.50
2022-10-22T05:59:06.298Z,7.10
2022-10-22T06:00:06.260Z,6.60
2022-10-22T06:01:06.256Z,7.20
2022-10-22T06:02:06.296Z,6.20
2022-10-22T06:03:06.241Z,6.70
2022-10-22T06:04:06.208Z,6.40
2022-10-22T06:05:06.202Z,6.10
2022-10-22T06:06:06.179Z,7.10
2022-10-22T06:07:06.195Z,6.80
2022-10-22T06:08:06.163Z,6.90
2022-10-22T06:09:06.211Z,6.60
2022-10-22T06:10:06.119Z,6.50
2022-10-22T06:11:06.121Z,8.30
2022-10-22T06:12:06.118Z,7.40
2022-10-22T06:13:06.089Z,6.60
2022-10-22T06:14:06.068Z,6.80
2022-10-22T06:15:06.067Z,8.50
2022-10-22T06:16:06.047Z,11.90
2022-10-22T06:17:06.060Z,7.50
2022-10-22T06:18:06.017Z,10.60
2022-10-22T06:19:06.008Z,9.20
2022-10-22T06:21:06.012Z,7.80
2022-10-22T06:22:05.998Z,7.80
2022-10-22T06:23:05.959Z,6.20
2022-10-22T06:24:05.946Z,6.60
2022-10-22T06:25:05.957Z,6.50
2022-10-22T06:26:05.934Z,4.70
2022-10-22T06:27:05.938Z,5.50
2022-10-22T06:28:05.897Z,5.40
2022-10-22T06:29:05.898Z,5.50
2022-10-22T06:30:05.887Z,5.80
2022-10-22T06:31:05.857Z,4.80
2022-10-22T06:32:05.854Z,4.90
2022-10-22T06:33:05.828Z,4.20
2022-10-22T06:34:05.819Z,3.90
2022-10-22T06:35:05.807Z,4.10
2022-10-22T06:36:07.654Z,4.20
2022-10-22T06:37:05.810Z,3.90
2022-10-22T06:38:05.756Z,4.10
2022-10-22T06:39:05.767Z,3.70
2022-10-22T06:40:05.745Z,5.70
2022-10-22T06:41:05.726Z,5.10
2022-10-22T06:42:05.717Z,3.80
2022-10-22T06:43:05.695Z,4.00
2022-10-22T06:44:05.697Z,3.80
2022-10-22T06:45:05.700Z,4.50
2022-10-22T06:46:05.663Z,4.90
2022-10-22T06:47:05.815Z,4.70
2022-10-22T06:48:05.652Z,4.40
2022-10-22T06:49:05.627Z,4.80
2022-10-22T06:50:06.296Z,6.00
2022-10-22T06:51:05.615Z,6.30
2022-10-22T06:52:05.602Z,6.80
2022-10-22T06:53:05.573Z,6.70
2022-10-22T06:54:05.561Z,6.10
2022-10-22T06:55:05.553Z,6.00
2022-10-22T06:56:05.553Z,4.60
2022-10-22T06:57:05.574Z,5.00
2022-10-22T06:58:05.502Z,5.40
2022-10-22T06:59:05.493Z,6.00
2022-10-22T07:00:05.474Z,4.60
2022-10-22T07:01:05.536Z,5.80
2022-10-22T07:02:05.462Z,8.40
2022-10-22T07:03:05.443Z,5.50
2022-10-22T07:04:05.480Z,5.00
2022-10-22T07:05:05.442Z,5.30
2022-10-22T07:06:05.424Z,8.20
2022-10-22T07:07:05.523Z,7.00
2022-10-22T07:08:05.373Z,9.10
2022-10-22T07:09:05.497Z,9.60
2022-10-22T07:10:05.354Z,8.90
2022-10-22T07:11:05.343Z,10.10
2022-10-22T07:12:05.331Z,9.70
2022-10-22T07:13:05.324Z,8.70
2022-10-22T07:14:05.302Z,10.00
2022-10-22T07:15:05.292Z,10.80
2022-10-22T07:16:05.263Z,10.50
2022-10-22T07:17:05.264Z,10.30
2022-10-22T07:18:05.285Z,9.80
2022-10-22T07:19:05.232Z,10.20
2022-10-22T07:20:05.212Z,9.20
2022-10-22T07:21:05.231Z,10.60
2022-10-22T07:22:05.203Z,9.90
2022-10-22T07:23:06.172Z,9.80
2022-10-22T07:24:05.202Z,9.10
2022-10-22T07:25:07.415Z,9.00
2022-10-22T07:26:05.149Z,9.20
2022-10-22T07:27:08.157Z,9.40
2022-10-22T07:28:06.116Z,9.30
2022-10-22T07:29:05.115Z,11.10
2022-10-22T07:30:05.139Z,9.50
2022-10-22T07:31:05.082Z,9.30
2022-10-22T07:32:05.073Z,9.30
2022-10-22T07:33:05.056Z,9.20
2022-10-22T07:34:05.043Z,8.50
2022-10-22T07:35:05.022Z,8.40
2022-10-22T07:36:05.022Z,8.00
2022-10-22T07:37:05.001Z,8.10
2022-10-22T07:38:04.980Z,7.50
2022-10-22T07:39:05.008Z,7.10
2022-10-22T07:40:04.952Z,6.70
2022-10-22T07:41:04.958Z,7.30
2022-10-22T07:42:04.930Z,6.70
2022-10-22T07:43:04.921Z,5.80
2022-10-22T07:44:04.908Z,5.80
2022-10-22T07:45:04.890Z,6.40
2022-10-22T07:46:04.890Z,5.50
2022-10-22T07:47:04.914Z,6.30
2022-10-22T07:48:04.854Z,6.20
2022-10-22T07:49:04.851Z,5.50
2022-10-22T07:50:04.820Z,6.70
2022-10-22T07:51:04.822Z,6.40
2022-10-22T07:52:04.858Z,6.20
2022-10-22T07:53:04.790Z,6.10
2022-10-22T07:54:04.859Z,6.40
2022-10-22T07:55:04.768Z,6.10
2022-10-22T07:56:04.759Z,6.50
2022-10-22T07:57:04.740Z,6.40
2022-10-22T07:58:04.760Z,6.50
2022-10-22T07:59:04.710Z,6.30
2022-10-22T08:00:04.721Z,6.10
2022-10-22T08:01:04.751Z,6.10
2022-10-22T08:02:04.697Z,6.30
2022-10-22T08:03:04.679Z,5.90
2022-10-22T08:04:04.651Z,5.90
2022-10-22T08:05:04.639Z,5.80
2022-10-22T08:06:04.629Z,4.30
2022-10-22T08:07:04.638Z,4.50
2022-10-22T08:08:04.629Z,3.80
2022-10-22T08:09:04.687Z,4.20
2022-10-22T08:10:04.587Z,4.00
2022-10-22T08:11:04.559Z,3.90
2022-10-22T08:12:04.540Z,4.50
2022-10-22T08:13:04.550Z,4.20
2022-10-22T08:14:04.535Z,4.40
2022-10-22T08:15:04.509Z,4.00
2022-10-22T08:16:04.491Z,4.40
2022-10-22T08:17:04.479Z,4.30
2022-10-22T08:18:04.480Z,3.70
2022-10-22T08:19:04.457Z,3.70
2022-10-22T08:20:04.449Z,3.90
2022-10-22T08:21:04.430Z,3.90
2022-10-22T08:22:04.410Z,4.00
2022-10-22T08:23:04.408Z,3.70
2022-10-22T08:24:04.476Z,3.40
2022-10-22T08:25:04.390Z,3.90
2022-10-22T08:26:04.369Z,3.50
2022-10-22T08:27:04.373Z,3.60
2022-10-22T08:28:04.353Z,3.80
2022-10-22T08:29:04.338Z,3.40
2022-10-22T08:30:04.317Z,3.80
2022-10-22T08:31:04.298Z,3.90
2022-10-22T08:32:04.294Z,4.00
2022-10-22T08:33:04.293Z,3.50
2022-10-22T08:34:04.258Z,4.60
2022-10-22T08:35:04.263Z,3.40
2022-10-22T08:36:04.228Z,3.90
2022-10-22T08:37:04.222Z,3.30
2022-10-22T08:38:04.216Z,3.50
2022-10-22T08:39:04.197Z,3.10
2022-10-22T08:40:04.178Z,2.90
2022-10-22T08:41:04.169Z,3.30
2022-10-22T08:42:04.158Z,2.80
2022-10-22T08:43:04.163Z,2.60
2022-10-22T08:44:04.139Z,2.60
2022-10-22T08:45:04.127Z,2.30
2022-10-22T08:46:04.108Z,2.60
2022-10-22T08:47:04.159Z,2.50
2022-10-22T08:48:04.088Z,2.30
2022-10-22T08:49:04.097Z,2.60
2022-10-22T08:50:04.048Z,3.40
2022-10-22T08:51:04.042Z,1.90
2022-10-22T08:52:04.027Z,3.00
2022-10-22T08:53:04.048Z,1.90
2022-10-22T08:54:03.996Z,2.20
2022-10-22T08:55:03.989Z,2.30
2022-10-22T08:56:03.968Z,2.20
2022-10-22T08:57:03.957Z,2.20
2022-10-22T08:58:03.958Z,2.20
2022-10-22T08:59:03.937Z,2.60
2022-10-22T09:00:03.920Z,2.00
2022-10-22T09:01:03.917Z,2.10
2022-10-22T09:02:03.905Z,1.80
2022-10-22T09:03:03.887Z,2.10
2022-10-22T09:04:03.867Z,1.80
2022-10-22T09:05:03.858Z,1.90
2022-10-22T09:06:03.838Z,2.40
2022-10-22T09:07:03.835Z,1.80
2022-10-22T09:08:03.826Z,3.30
2022-10-22T09:09:03.863Z,3.20
2022-10-22T09:10:03.798Z,2.20
2022-10-22T09:11:03.777Z,3.00
2022-10-22T09:12:03.768Z,3.00
2022-10-22T09:13:03.768Z,2.00
2022-10-22T09:14:03.837Z,1.90
2022-10-22T09:15:03.757Z,2.10
2022-10-22T09:16:03.708Z,1.70
2022-10-22T09:17:03.706Z,2.00
2022-10-22T09:18:03.705Z,1.80
2022-10-22T09:19:03.689Z,2.00
2022-10-22T09:20:03.690Z,1.60
2022-10-22T09:21:03.678Z,1.90
2022-10-22T09:22:03.692Z,1.90
2022-10-22T09:23:03.627Z,1.90
2022-10-22T09:24:03.618Z,1.80
2022-10-22T09:25:03.599Z,1.90
2022-10-22T09:26:03.577Z,1.90
2022-10-22T09:27:03.577Z,1.70
2022-10-22T09:28:03.591Z,1.90
2022-10-22T09:29:03.627Z,1.80
2022-10-22T09:30:03.537Z,1.90
2022-10-22T09:31:03.737Z,1.80
2022-10-22T09:32:03.509Z,1.80
2022-10-22T09:33:03.551Z,1.90
2022-10-22T09:34:03.516Z,1.90
2022-10-22T09:35:03.487Z,1.90
2022-10-22T09:36:03.510Z,2.00
2022-10-22T09:37:03.497Z,1.70
2022-10-22T09:38:03.446Z,1.80
2022-10-22T09:39:03.459Z,1.60
2022-10-22T09:40:03.411Z,2.10
2022-10-22T09:41:03.494Z,2.00
2022-10-22T09:42:03.397Z,1.60
2022-10-22T09:43:03.428Z,2.00
2022-10-22T09:44:03.469Z,1.90
2022-10-22T09:45:03.409Z,1.60
2022-10-22T09:46:03.331Z,1.70
2022-10-22T09:47:03.319Z,1.90
2022-10-22T09:48:03.369Z,1.90
2022-10-22T09:49:03.308Z,1.60
2022-10-22T09:50:03.277Z,1.60
2022-10-22T09:51:03.302Z,1.50
2022-10-22T09:52:03.248Z,1.80
2022-10-22T09:53:03.237Z,1.70
2022-10-22T09:54:03.301Z,1.70
2022-10-22T09:55:03.230Z,1.80
2022-10-22T09:56:03.201Z,1.70
2022-10-22T09:57:03.208Z,1.70
2022-10-22T09:58:03.166Z,1.70
2022-10-22T09:59:03.211Z,1.70
2022-10-22T10:00:03.146Z,1.60
2022-10-22T10:01:03.225Z,1.60
2022-10-22T10:02:13.623Z,1.40
2022-10-22T10:03:04.203Z,1.70
2022-10-22T10:04:06.943Z,1.50
2022-10-22T10:05:04.087Z,1.40
2022-10-22T10:06:05.909Z,1.70
2022-10-22T10:07:03.058Z,2.60
2022-10-22T10:08:03.272Z,1.60
2022-10-22T10:09:03.156Z,2.00
2022-10-22T10:10:03.017Z,1.60
2022-10-22T10:11:03.021Z,2.30
2022-10-22T10:12:02.990Z,1.70
2022-10-22T10:13:02.989Z,1.60
2022-10-22T10:14:02.957Z,1.50
2022-10-22T10:15:02.972Z,1.80
2022-10-22T10:16:02.937Z,1.60
2022-10-22T10:17:02.926Z,1.70
2022-10-22T10:18:02.907Z,1.40
2022-10-22T10:19:02.896Z,1.50
2022-10-22T10:20:04.127Z,1.50
2022-10-22T10:21:03.023Z,1.80
2022-10-22T10:22:02.856Z,1.50
2022-10-22T10:23:02.849Z,1.60
2022-10-22T10:24:02.834Z,1.50
2022-10-22T10:25:02.835Z,1.50
2022-10-22T10:26:02.806Z,1.60
2022-10-22T10:27:02.800Z,1.60
2022-10-22T10:28:02.779Z,1.50
2022-10-22T10:29:02.768Z,1.40
2022-10-22T10:30:02.787Z,1.40
2022-10-22T10:31:02.736Z,1.30
2022-10-22T10:32:02.737Z,2.20
2022-10-22T10:33:02.717Z,2.30
2022-10-22T10:34:02.697Z,1.60
2022-10-22T10:35:02.715Z,1.40
2022-10-22T10:36:02.666Z,1.40
2022-10-22T10:37:02.667Z,1.70
2022-10-22T10:38:02.661Z,2.50
2022-10-22T10:39:02.646Z,1.40
2022-10-22T10:40:02.652Z,1.20
2022-10-22T10:41:02.617Z,1.50
2022-10-22T10:42:02.596Z,1.60
2022-10-22T10:43:02.588Z,1.50
2022-10-22T10:44:02.575Z,1.70
2022-10-22T10:45:02.558Z,1.70
2022-10-22T10:46:02.697Z,1.40
2022-10-22T10:47:02.628Z,1.50
2022-10-22T10:49:00.906Z,1.40
2022-10-22T10:50:00.877Z,1.40
2022-10-22T10:51:00.889Z,1.30
2022-10-22T10:52:00.866Z,1.50
2022-10-22T10:53:00.838Z,1.50
2022-10-22T10:54:00.836Z,2.00
2022-10-22T10:55:00.805Z,1.60
2022-10-22T10:56:00.835Z,1.40
2022-10-22T10:57:00.785Z,1.40
2022-10-22T10:58:00.776Z,1.40
2022-10-22T10:59:00.760Z,1.10
2022-10-22T11:00:00.745Z,1.30
2022-10-22T11:01:00.745Z,1.40
2022-10-22T11:02:00.780Z,1.20
2022-10-22T11:03:00.708Z,1.60
2022-10-22T11:04:00.696Z,1.20
2022-10-22T11:05:00.689Z,1.30
2022-10-22T11:06:00.677Z,1.10
2022-10-22T11:07:11.098Z,1.30
2022-10-22T11:08:01.654Z,1.30
2022-10-22T11:09:00.656Z,1.20
2022-10-22T11:10:00.624Z,1.30
2022-10-22T11:11:00.607Z,1.10
2022-10-22T11:12:00.595Z,1.10
2022-10-22T11:13:00.575Z,1.20
2022-10-22T11:14:00.573Z,1.30
2022-10-22T11:15:00.553Z,1.20
2022-10-22T11:16:00.555Z,2.90
2022-10-22T11:17:00.526Z,1.20
2022-10-22T11:18:00.516Z,1.10
2022-10-22T11:19:00.505Z,1.20
2022-10-22T11:20:00.639Z,1.30
2022-10-22T11:21:00.483Z,1.70
2022-10-22T11:22:00.458Z,1.10
2022-10-22T11:23:18.790Z,1.10
2022-10-22T11:24:01.435Z,1.00
2022-10-22T11:25:00.418Z,1.00
2022-10-22T11:26:00.417Z,1.10
2022-10-22T11:27:00.418Z,1.50
2022-10-22T11:28:06.634Z,1.90
2022-10-22T11:29:01.358Z,2.30
2022-10-22T11:30:00.358Z,1.80
2022-10-22T11:31:00.395Z,1.70
2022-10-22T11:32:00.326Z,2.40
2022-10-22T11:33:00.305Z,2.50
2022-10-22T11:34:04.736Z,1.80
2022-10-22T11:35:01.299Z,1.80
2022-10-22T11:36:00.286Z,2.70
2022-10-22T11:37:00.256Z,1.40
2022-10-22T11:38:00.245Z,1.20
2022-10-22T11:39:00.234Z,1.20
2022-10-22T11:40:00.226Z,1.30
2022-10-22T11:41:00.207Z,1.10
2022-10-22T11:42:00.218Z,2.10
2022-10-22T11:43:00.185Z,1.40
2022-10-22T11:44:00.175Z,1.30
2022-10-22T11:45:00.175Z,1.00
2022-10-22T11:46:00.144Z,1.10
2022-10-22T11:47:00.149Z,1.00
2022-10-22T11:48:00.125Z,1.20
2022-10-22T11:49:00.135Z,1.30
2022-10-22T11:50:00.100Z,1.20
2022-10-22T11:51:00.105Z,1.30
2022-10-22T11:52:04.244Z,1.00
2022-10-22T11:53:01.176Z,1.10
2022-10-22T11:54:00.045Z,1.00
2022-10-22T11:55:00.021Z,1.50
2022-10-22T11:56:00.038Z,1.20
2022-10-22T11:57:00.007Z,1.30
2022-10-22T11:57:59.986Z,1.20
2022-10-22T11:58:59.977Z,1.90
2022-10-22T11:59:59.968Z,1.20
2022-10-22T12:00:59.945Z,1.20
2022-10-22T12:01:59.945Z,1.20
2022-10-22T12:02:59.915Z,1.10
2022-10-22T12:03:59.895Z,1.30
2022-10-22T12:04:59.896Z,1.50
2022-10-22T12:05:59.906Z,1.30
2022-10-22T12:06:59.874Z,1.40
2022-10-22T12:07:59.857Z,1.30
2022-10-22T12:08:59.903Z,1.80
2022-10-22T12:09:59.866Z,1.70
2022-10-22T12:10:59.815Z,1.50
2022-10-22T12:11:59.817Z,1.80
2022-10-22T12:12:59.776Z,1.60
2022-10-22T12:13:59.789Z,1.70
2022-10-22T12:14:59.754Z,2.00
2022-10-22T12:15:59.745Z,1.80
2022-10-22T12:16:59.752Z,2.30
2022-10-22T12:17:59.745Z,2.40
2022-10-22T12:18:59.725Z,4.30
2022-10-22T12:20:02.062Z,3.70
2022-10-22T12:20:59.698Z,1.80
2022-10-22T12:21:59.684Z,13.80
2022-10-22T12:22:59.685Z,20.70
2022-10-22T12:23:59.645Z,9.50
2022-10-22T12:24:59.626Z,1.90
2022-10-22T12:25:59.614Z,1.90
2022-10-22T12:26:59.595Z,29.70
2022-10-22T12:27:59.627Z,7.70
2022-10-22T12:28:59.564Z,4.90
2022-10-22T12:29:59.568Z,4.60
2022-10-22T12:30:59.545Z,5.10
2022-10-22T12:31:59.535Z,15.00
2022-10-22T12:32:59.569Z,10.50
2022-10-22T12:33:59.504Z,6.50
2022-10-22T12:34:59.487Z,5.90
2022-10-22T12:35:59.535Z,12.10
2022-10-22T12:36:59.469Z,13.30
2022-10-22T12:37:59.466Z,8.70
2022-10-22T12:38:59.435Z,2.10
2022-10-22T12:39:59.424Z,2.80
2022-10-22T12:40:59.456Z,1.50
2022-10-22T12:41:59.395Z,1.80
2022-10-22T12:42:59.462Z,2.00
2022-10-22T12:43:59.384Z,4.80
2022-10-22T12:44:59.375Z,2.20
2022-10-22T12:45:59.348Z,1.60
2022-10-22T12:46:59.424Z,3.20
2022-10-22T12:47:59.327Z,6.80
2022-10-22T12:48:59.305Z,1.90
2022-10-22T12:49:59.303Z,32.50
2022-10-22T12:50:59.306Z,9.30
2022-10-22T12:51:59.274Z,17.80
2022-10-22T12:52:59.296Z,4.60
2022-10-22T12:53:59.235Z,1.40
2022-10-22T12:54:59.224Z,1.20
2022-10-22T12:55:59.214Z,1.40
2022-10-22T12:56:59.219Z,2.20
2022-10-22T12:57:59.183Z,1.40
2022-10-22T12:58:59.174Z,1.00
2022-10-22T13:00:59.240Z,1.80
2022-10-22T13:01:59.145Z,2.70
2022-10-22T13:02:59.124Z,1.10
2022-10-22T13:03:59.119Z,3.00
2022-10-22T13:04:59.095Z,3.20
2022-10-22T13:05:59.075Z,5.70
2022-10-22T13:06:59.083Z,4.70
2022-10-22T13:07:59.119Z,0.80
2022-10-22T13:08:59.104Z,3.00
2022-10-22T13:09:59.026Z,1.30
2022-10-22T13:10:59.017Z,3.40
2022-10-22T13:11:59.016Z,1.10
2022-10-22T13:12:58.988Z,3.90
2022-10-22T13:13:58.964Z,4.90
2022-10-22T13:14:58.963Z,2.30
2022-10-22T13:15:58.949Z,1.30
2022-10-22T13:16:58.945Z,1.50
2022-10-22T13:17:58.914Z,1.20
2022-10-22T13:18:58.904Z,2.10
2022-10-22T13:19:58.937Z,1.20
2022-10-22T13:20:58.908Z,3.20
2022-10-22T13:21:58.875Z,2.00
2022-10-22T13:22:58.855Z,1.40
2022-10-22T13:23:58.835Z,1.10
2022-10-22T13:24:58.850Z,1.20
2022-10-22T13:25:58.804Z,1.60
2022-10-22T13:26:58.805Z,1.50
2022-10-22T13:27:58.785Z,1.30
2022-10-22T13:28:58.791Z,1.10
2022-10-22T13:29:58.754Z,2.30
2022-10-22T13:30:58.751Z,2.20
2022-10-22T13:31:58.744Z,1.80
2022-10-22T13:32:58.727Z,1.60
2022-10-22T13:33:58.703Z,1.70
2022-10-22T13:34:58.694Z,1.90
2022-10-22T13:35:58.682Z,1.70
2022-10-22T13:36:58.683Z,2.30
2022-10-22T13:37:58.664Z,2.10
2022-10-22T13:38:58.644Z,1.80
2022-10-22T13:39:58.631Z,2.10
2022-10-22T13:40:58.614Z,2.00
2022-10-22T13:41:58.605Z,2.10
2022-10-22T13:42:58.603Z,1.40
2022-10-22T13:43:58.582Z,1.80
2022-10-22T13:44:58.563Z,1.50
2022-10-22T13:45:58.544Z,3.30
2022-10-22T13:46:58.542Z,1.20
2022-10-22T13:47:58.531Z,4.00
2022-10-22T13:48:58.516Z,1.40
2022-10-22T13:49:58.741Z,2.80
2022-10-22T13:50:58.484Z,2.80
2022-10-22T13:51:58.473Z,1.50
2022-10-22T13:52:58.471Z,1.70
2022-10-22T13:53:58.446Z,3.10
2022-10-22T13:54:58.424Z,1.40
2022-10-22T13:55:58.423Z,3.50
2022-10-22T13:56:58.479Z,2.40
2022-10-22T13:57:58.570Z,1.90
2022-10-22T13:58:58.382Z,2.20
2022-10-22T13:59:58.364Z,2.00
2022-10-22T14:00:58.411Z,1.40
2022-10-22T14:01:58.343Z,1.40
2022-10-22T14:02:58.336Z,2.70
2022-10-22T14:03:58.313Z,2.40
2022-10-22T14:04:58.323Z,1.50
2022-10-22T14:05:58.294Z,1.30
2022-10-22T14:07:01.245Z,2.20
2022-10-22T14:07:59.303Z,2.50
2022-10-22T14:08:58.300Z,9.30
2022-10-22T14:09:58.261Z,2.80
2022-10-22T14:10:58.253Z,2.20
2022-10-22T14:11:58.214Z,3.20
2022-10-22T14:12:58.254Z,1.60
2022-10-22T14:13:58.190Z,1.90
2022-10-22T14:15:58.168Z,2.00
2022-10-22T14:16:58.148Z,2.50
2022-10-22T14:17:58.141Z,1.80
2022-10-22T14:18:58.119Z,1.80
2022-10-22T14:19:58.109Z,2.50
2022-10-22T14:20:58.085Z,4.80
2022-10-22T14:21:58.073Z,3.00
2022-10-22T14:22:58.062Z,4.00
2022-10-22T14:23:58.043Z,3.60
2022-10-22T14:24:58.037Z,1.50
2022-10-22T14:25:58.022Z,1.70
2022-10-22T14:26:58.003Z,1.70
2022-10-22T14:27:58.031Z,2.50
2022-10-22T14:29:13.368Z,1.70
2022-10-22T14:29:59.617Z,1.50
2022-10-22T14:30:57.965Z,1.60
2022-10-22T14:31:57.945Z,1.80
2022-10-22T14:32:57.933Z,1.60
2022-10-22T14:33:57.912Z,1.80
2022-10-22T14:34:57.904Z,1.90
2022-10-22T14:35:57.892Z,1.60
2022-10-22T14:36:57.872Z,1.50
2022-10-22T14:37:57.873Z,1.70
2022-10-22T14:38:57.842Z,1.30
2022-10-22T14:40:57.822Z,1.20
2022-10-22T14:41:57.813Z,1.30
2022-10-22T14:42:57.810Z,1.50
2022-10-22T14:43:57.782Z,1.50
2022-10-22T14:44:57.772Z,1.50
2022-10-22T14:45:57.765Z,3.10
2022-10-22T14:46:57.731Z,1.70
2022-10-22T14:47:57.733Z,1.90
2022-10-22T14:48:57.722Z,1.80
2022-10-22T14:49:57.702Z,1.70
2022-10-22T14:50:57.689Z,1.90
2022-10-22T14:51:57.675Z,3.40
2022-10-22T14:52:57.663Z,2.70
2022-10-22T14:53:57.652Z,1.30
2022-10-22T14:54:57.633Z,1.60
2022-10-22T14:55:57.623Z,1.40
2022-10-22T14:56:57.618Z,1.70
2022-10-22T14:57:57.621Z,1.40
2022-10-22T14:58:57.582Z,1.50
2022-10-22T14:59:57.574Z,1.40
2022-10-22T15:00:57.632Z,2.40
2022-10-22T15:01:57.552Z,1.70
2022-10-22T15:03:00.619Z,1.60
2022-10-22T15:03:57.533Z,1.40
2022-10-22T15:05:57.492Z,1.20
2022-10-22T15:06:57.473Z,1.50
2022-10-22T15:07:57.462Z,1.40
2022-10-22T15:08:57.508Z,1.70
2022-10-22T15:09:57.442Z,1.70
2022-10-22T15:10:57.422Z,1.20
2022-10-22T15:11:57.411Z,1.40
2022-10-22T15:12:57.413Z,1.40
2022-10-22T15:13:57.383Z,1.30
2022-10-22T15:14:57.411Z,1.10
2022-10-22T15:15:57.365Z,1.80
2022-10-22T15:16:57.343Z,1.90
2022-10-22T15:17:57.344Z,2.10
2022-10-22T15:18:57.313Z,2.50
2022-10-22T15:19:57.303Z,2.60
2022-10-22T15:20:57.291Z,1.80
2022-10-22T15:21:57.287Z,1.60
2022-10-22T15:22:57.302Z,1.90
2022-10-22T15:23:57.270Z,1.30
2022-10-22T15:24:57.264Z,1.60
2022-10-22T15:25:57.230Z,1.20
2022-10-22T15:26:57.211Z,1.00
2022-10-22T15:28:01.849Z,1.30
2022-10-22T15:28:58.183Z,1.50
2022-10-22T15:29:57.275Z,1.30
2022-10-22T15:30:57.152Z,1.30
2022-10-22T15:31:57.152Z,1.10
2022-10-22T15:32:57.143Z,1.10
2022-10-22T15:34:01.542Z,1.10
2022-10-22T15:34:57.105Z,1.00
2022-10-22T15:35:57.093Z,1.20
2022-10-22T15:36:57.113Z,1.00
2022-10-22T15:37:57.094Z,1.00
2022-10-22T15:38:57.056Z,1.10
2022-10-22T15:39:57.041Z,1.00
2022-10-22T15:40:59.623Z,1.00
2022-10-22T15:41:57.012Z,0.90
2022-10-22T15:42:56.993Z,1.00
2022-10-22T15:43:57.000Z,1.10
2022-10-22T15:44:56.970Z,1.00
2022-10-22T15:45:56.962Z,1.20
2022-10-22T15:46:56.942Z,1.00
2022-10-22T15:47:56.932Z,0.90
2022-10-22T15:48:56.923Z,1.00
2022-10-22T15:49:56.909Z,1.30
2022-10-22T15:50:56.897Z,1.00
2022-10-22T15:51:56.891Z,1.00
2022-10-22T15:52:56.879Z,1.40
2022-10-22T15:53:56.862Z,1.10
2022-10-22T15:54:56.834Z,1.40
2022-10-22T15:55:56.822Z,1.10
2022-10-22T15:56:56.815Z,1.10
2022-10-22T15:57:59.237Z,1.40
2022-10-22T15:58:57.794Z,1.40
2022-10-22T15:59:56.828Z,1.80
2022-10-22T16:00:56.785Z,2.00
2022-10-22T16:01:56.752Z,2.30
2022-10-22T16:02:56.731Z,2.00
2022-10-22T16:03:56.732Z,1.70
2022-10-22T16:04:56.706Z,1.80
2022-10-22T16:05:56.694Z,6.30
2022-10-22T16:06:56.675Z,4.90
2022-10-22T16:07:56.673Z,2.90
2022-10-22T16:08:56.710Z,2.50
2022-10-22T16:09:56.749Z,3.40
2022-10-22T16:10:56.622Z,2.60
2022-10-22T16:11:56.633Z,2.60
2022-10-22T16:12:56.601Z,3.70
2022-10-22T16:13:56.602Z,1.80
2022-10-22T16:14:56.771Z,3.20
2022-10-22T16:15:56.562Z,1.80
2022-10-22T16:16:56.623Z,1.60
2022-10-22T16:17:56.541Z,1.60
2022-10-22T16:18:56.532Z,1.50
2022-10-22T16:19:56.596Z,1.70
2022-10-22T16:20:56.500Z,1.90
2022-10-22T16:21:56.491Z,1.30
2022-10-22T16:22:56.462Z,1.50
2022-10-22T16:23:56.473Z,2.20
2022-10-22T16:24:56.441Z,2.20
2022-10-22T16:25:56.431Z,2.30
2022-10-22T16:26:56.417Z,1.90
2022-10-22T16:27:56.403Z,2.00
2022-10-22T16:28:56.481Z,1.70
2022-10-22T16:29:56.383Z,1.80
2022-10-22T16:30:56.363Z,2.30
2022-10-22T16:31:56.372Z,1.90
2022-10-22T16:32:56.462Z,2.00
2022-10-22T16:33:56.362Z,2.00
2022-10-22T16:34:56.311Z,1.90
2022-10-22T16:35:56.290Z,1.80
2022-10-22T16:36:56.295Z,2.70
2022-10-22T16:37:56.271Z,6.00
2022-10-22T16:38:56.272Z,14.10
2022-10-22T16:39:56.240Z,3.90
2022-10-22T16:40:56.240Z,5.40
2022-10-22T16:41:56.226Z,5.80
2022-10-22T16:42:57.200Z,5.90
2022-10-22T16:43:56.199Z,4.80
2022-10-22T16:44:56.210Z,2.30
2022-10-22T16:45:56.162Z,2.10
2022-10-22T16:46:56.160Z,2.30
2022-10-22T16:47:56.139Z,2.60
2022-10-22T16:49:03.206Z,2.70
2022-10-22T16:49:56.127Z,2.50
2022-10-22T16:50:56.094Z,2.20
2022-10-22T16:51:56.086Z,2.30
2022-10-22T16:52:56.065Z,2.50
2022-10-22T16:53:56.058Z,4.20
2022-10-22T16:54:56.047Z,2.60
2022-10-22T16:55:56.036Z,2.20
2022-10-22T16:56:56.015Z,2.30
2022-10-22T16:57:56.004Z,2.20
2022-10-22T16:58:55.990Z,2.70
2022-10-22T16:59:55.985Z,2.60
2022-10-22T17:00:56.026Z,2.60
2022-10-22T17:01:56.024Z,2.90
2022-10-22T17:02:55.944Z,2.70
2022-10-22T17:03:55.934Z,3.20
2022-10-22T17:04:55.926Z,7.60
2022-10-22T17:05:55.895Z,2.60
2022-10-22T17:06:55.886Z,2.40
2022-10-22T17:07:55.865Z,2.30
2022-10-22T17:08:55.928Z,2.30
2022-10-22T17:09:55.862Z,2.80
2022-10-22T17:10:55.849Z,2.90
2022-10-22T17:11:55.823Z,2.50
2022-10-22T17:12:55.817Z,2.00
2022-10-22T17:13:55.794Z,2.30
2022-10-22T17:14:55.796Z,2.60
2022-10-22T17:15:55.764Z,3.10
2022-10-22T17:16:55.765Z,4.20
2022-10-22T17:17:55.854Z,4.50
2022-10-22T17:18:55.744Z,4.00
2022-10-22T17:19:55.724Z,4.40
2022-10-22T17:20:55.724Z,4.40
2022-10-22T17:21:55.724Z,4.50
2022-10-22T17:22:55.693Z,5.30
2022-10-22T17:23:55.663Z,5.90
2022-10-22T17:24:55.672Z,5.30
2022-10-22T17:25:55.645Z,6.80
2022-10-22T17:26:55.690Z,9.00
2022-10-22T17:27:55.613Z,9.10
2022-10-22T17:28:55.594Z,9.80
2022-10-22T17:29:55.602Z,8.30
2022-10-22T17:30:55.574Z,6.60
2022-10-22T17:31:55.562Z,6.60
2022-10-22T17:32:55.544Z,6.70
2022-10-22T17:33:55.524Z,6.00
2022-10-22T17:34:55.535Z,6.30
2022-10-22T17:35:55.504Z,9.20
2022-10-22T17:36:55.502Z,12.10
2022-10-22T17:37:55.473Z,9.90
2022-10-22T17:38:55.463Z,11.70
2022-10-22T17:39:55.479Z,13.20
2022-10-22T17:40:55.442Z,12.80
2022-10-22T17:41:55.423Z,13.60
2022-10-22T17:42:55.421Z,13.40
2022-10-22T17:43:55.402Z,12.80
2022-10-22T17:44:55.442Z,13.00
2022-10-22T17:45:55.402Z,12.80
2022-10-22T17:46:55.380Z,12.40
2022-10-22T17:47:55.392Z,12.20
2022-10-22T17:48:55.332Z,10.00
2022-10-22T17:49:55.385Z,10.10
2022-10-22T17:50:56.987Z,11.10
2022-10-22T17:51:55.339Z,13.10
2022-10-22T17:52:55.333Z,12.20
2022-10-22T17:53:55.269Z,10.80